Time;durP1;ratioP1;P1;durP2;ratioP2;P2;SDS_P1;SDS_P2;PMS_P1;PMS_P2;Temp;Humidity;BMP_temperature;BMP_pressure;BME280_temperature;BME280_humidity;BME280_pressure;Samples;Min_cycle;Max_cycle;Signal;HPM_P1;HPM_P2
2022/04/28 00:01:19;;;;;;;0.00;0.00;;;;;;;;;;4177001;28;20064;-37
2022/04/28 00:03:21;;;;;;;0.10;0.10;;;;;;;;;;4176669;28;20056;-37
2022/04/28 00:05:22;;;;;;;0.45;0.10;;;;;;;;;;4176825;28;20515;-37
2022/04/28 00:07:23;;;;;;;0.10;0.10;;;;;;;;;;4177172;28;20114;-37
2022/04/28 00:09:25;;;;;;;0.10;0.10;;;;;;;;;;4176991;28;20053;-37
2022/04/28 00:11:26;;;;;;;0.10;0.10;;;;;;;;;;4179621;28;20056;-42
2022/04/28 00:13:28;;;;;;;0.20;0.10;;;;;;;;;;4180272;28;20114;-36
2022/04/28 00:15:29;;;;;;;0.05;0.05;;;;;;;;;;4179109;28;20065;-37
2022/04/28 00:17:31;;;;;;;0.10;0.10;;;;;;;;;;4177743;28;20061;-36
2022/04/28 00:19:32;;;;;;;0.10;0.10;;;;;;;;;;4165650;28;20053;-37
2022/04/28 00:21:34;;;;;;;0.28;0.10;;;;;;;;;;4165740;28;20053;-36
2022/04/28 00:23:35;;;;;;;0.32;0.00;;;;;;;;;;4167430;28;20053;-36
2022/04/28 00:25:36;;;;;;;0.20;0.10;;;;;;;;;;4182439;28;20107;-37
2022/04/28 00:27:37;;;;;;;0.00;0.00;;;;;;;;;;4182018;28;20053;-37
2022/04/28 00:29:39;;;;;;;0.10;0.10;;;;;;;;;;4182229;28;20099;-36
2022/04/28 00:31:40;;;;;;;0.28;0.10;;;;;;;;;;4182035;28;20110;-36
2022/04/28 00:33:41;;;;;;;0.15;0.10;;;;;;;;;;4180275;28;20167;-37
2022/04/28 00:35:43;;;;;;;0.30;0.03;;;;;;;;;;4182368;28;20056;-37
2022/04/28 00:37:45;;;;;;;0.13;0.10;;;;;;;;;;4181821;28;20052;-37
2022/04/28 00:39:46;;;;;;;0.08;0.08;;;;;;;;;;4180686;28;20552;-37
2022/04/28 00:41:47;;;;;;;0.00;0.00;;;;;;;;;;4181921;28;20049;-37
2022/04/28 00:43:53;;;;;;;0.25;0.10;;;;;;;;;;4181704;28;20461;-37
2022/04/28 00:45:55;;;;;;;0.10;0.10;;;;;;;;;;4164156;28;20057;-37
2022/04/28 00:52:35;;;;;;;0.10;0.10;;;;;;;;;;4180850;28;20099;-37
2022/04/28 00:54:36;;;;;;;0.50;0.10;;;;;;;;;;4181921;28;20049;-37
2022/04/28 00:56:37;;;;;;;0.10;0.10;;;;;;;;;;4178682;28;20107;-37
2022/04/28 00:58:39;;;;;;;0.10;0.10;;;;;;;;;;4161916;28;20119;-37
2022/04/28 01:00:40;;;;;;;0.10;0.10;;;;;;;;;;4178290;28;20071;-37
2022/04/28 01:02:41;;;;;;;0.10;0.03;;;;;;;;;;4177666;28;20060;-37
2022/04/28 01:04:43;;;;;;;0.08;0.00;;;;;;;;;;4178451;28;20060;-37
2022/04/28 01:06:44;;;;;;;0.20;0.10;;;;;;;;;;4179457;28;20130;-37
2022/04/28 01:08:46;;;;;;;0.03;0.00;;;;;;;;;;4179414;28;20069;-37
2022/04/28 01:10:47;;;;;;;0.08;0.08;;;;;;;;;;4179923;28;20060;-37
2022/04/28 01:12:48;;;;;;;0.10;0.10;;;;;;;;;;4178086;28;20855;-37
2022/04/28 01:14:50;;;;;;;0.10;0.10;;;;;;;;;;4178478;28;20053;-37
2022/04/28 01:16:53;;;;;;;0.20;0.13;;;;;;;;;;4178175;28;20053;-37
2022/04/28 01:18:55;;;;;;;0.10;0.10;;;;;;;;;;4179078;28;20106;-37
2022/04/28 01:21:01;;;;;;;0.20;0.10;;;;;;;;;;4177476;28;20057;-37
2022/04/28 01:23:06;;;;;;;0.10;0.10;;;;;;;;;;4179314;28;20098;-37
2022/04/28 01:25:09;;;;;;;1.05;0.20;;;;;;;;;;4179279;28;20118;-37
2022/04/28 01:27:11;;;;;;;0.00;0.00;;;;;;;;;;4179408;28;20049;-36
2022/04/28 01:29:12;;;;;;;0.10;0.00;;;;;;;;;;4177967;28;20248;-37
2022/04/28 01:31:13;;;;;;;0.45;0.22;;;;;;;;;;4179320;28;20053;-37
2022/04/28 01:33:22;;;;;;;0.00;0.00;;;;;;;;;;4177200;28;20114;-37
2022/04/28 01:35:24;;;;;;;0.05;0.03;;;;;;;;;;4179383;28;20057;-37
2022/04/28 01:37:25;;;;;;;0.00;0.00;;;;;;;;;;4177951;28;20413;-37
2022/04/28 01:39:29;;;;;;;0.10;0.10;;;;;;;;;;4177585;28;20052;-37
2022/04/28 01:41:31;;;;;;;0.00;0.00;;;;;;;;;;4177811;28;20154;-37
2022/04/28 01:43:32;;;;;;;0.60;0.10;;;;;;;;;;4161045;28;20053;-37
2022/04/28 01:45:34;;;;;;;0.00;0.00;;;;;;;;;;4177547;28;20053;-37
2022/04/28 01:47:44;;;;;;;0.05;0.00;;;;;;;;;;4178668;28;20064;-37
2022/04/28 01:50:12;;;;;;;0.10;0.10;;;;;;;;;;4179469;28;20068;-37
2022/04/28 01:55:13;;;;;;;0.10;0.10;;;;;;;;;;4177620;28;20898;-37
2022/04/28 01:57:29;;;;;;;0.00;0.00;;;;;;;;;;4177341;28;20126;-38
2022/04/28 01:59:41;;;;;;;0.00;0.00;;;;;;;;;;4162862;28;20057;-37
2022/04/28 02:02:01;;;;;;;0.10;0.00;;;;;;;;;;4178640;28;20102;-37
2022/04/28 02:04:03;;;;;;;0.22;0.00;;;;;;;;;;4176870;28;20061;-37
2022/04/28 02:06:05;;;;;;;0.00;0.00;;;;;;;;;;4169441;28;20053;-37
2022/04/28 02:08:07;;;;;;;0.10;0.00;;;;;;;;;;4164731;28;20566;-37
2022/04/28 02:10:09;;;;;;;0.10;0.10;;;;;;;;;;4146712;28;20058;-37
2022/04/28 02:12:13;;;;;;;0.25;0.10;;;;;;;;;;4162723;28;20105;-37
2022/04/28 02:14:32;;;;;;;0.13;0.00;;;;;;;;;;4164452;28;20107;-37
2022/04/28 02:16:54;;;;;;;0.00;0.00;;;;;;;;;;4172623;28;20053;-38
2022/04/28 02:19:02;;;;;;;0.40;0.10;;;;;;;;;;4162530;28;20057;-37
2022/04/28 02:21:03;;;;;;;0.15;0.10;;;;;;;;;;4162673;28;20049;-37
2022/04/28 02:23:04;;;;;;;0.10;0.10;;;;;;;;;;4163651;28;20386;-37
2022/04/28 02:25:09;;;;;;;0.30;0.00;;;;;;;;;;4162611;28;20053;-37
2022/04/28 02:27:11;;;;;;;0.47;0.17;;;;;;;;;;4162909;28;20049;-37
2022/04/28 02:29:12;;;;;;;0.10;0.10;;;;;;;;;;4162692;28;20053;-37
2022/04/28 02:31:15;;;;;;;0.30;0.10;;;;;;;;;;4146382;28;20050;-37
2022/04/28 02:33:18;;;;;;;0.52;0.20;;;;;;;;;;4161156;28;20049;-37
2022/04/28 02:35:40;;;;;;;0.10;0.10;;;;;;;;;;4166576;28;20053;-37
2022/04/28 02:37:41;;;;;;;0.28;0.10;;;;;;;;;;4163962;28;20071;-37
2022/04/28 02:39:43;;;;;;;0.10;0.10;;;;;;;;;;4180156;28;20098;-37
2022/04/28 02:41:49;;;;;;;0.10;0.10;;;;;;;;;;4178935;28;20052;-37
2022/04/28 02:43:51;;;;;;;0.20;0.05;;;;;;;;;;4178516;28;20615;-37
2022/04/28 02:45:53;;;;;;;0.10;0.10;;;;;;;;;;4178756;28;20099;-38
2022/04/28 02:47:59;;;;;;;0.10;0.10;;;;;;;;;;4178257;28;20072;-36
2022/04/28 02:50:04;;;;;;;0.35;0.00;;;;;;;;;;4178672;28;20500;-37
2022/04/28 02:52:09;;;;;;;0.10;0.10;;;;;;;;;;4178379;28;20060;-37
2022/04/28 02:54:11;;;;;;;0.00;0.00;;;;;;;;;;4162036;28;20103;-38
2022/04/28 02:56:23;;;;;;;0.00;0.00;;;;;;;;;;4178948;28;20057;-37
2022/04/28 02:58:25;;;;;;;0.20;0.10;;;;;;;;;;4178582;28;20053;-37
2022/04/28 03:00:26;;;;;;;0.17;0.10;;;;;;;;;;4178672;28;20107;-37
2022/04/28 03:02:35;;;;;;;0.10;0.00;;;;;;;;;;4177876;28;20356;-37
2022/04/28 03:04:36;;;;;;;0.43;0.10;;;;;;;;;;4179811;28;20052;-37
2022/04/28 03:11:20;;;;;;;0.20;0.10;;;;;;;;;;4178344;28;20057;-37
2022/04/28 03:13:22;;;;;;;0.20;0.10;;;;;;;;;;4179602;28;20053;-37
2022/04/28 03:15:25;;;;;;;0.00;0.00;;;;;;;;;;4178364;28;20052;-37
2022/04/28 03:17:26;;;;;;;0.10;0.10;;;;;;;;;;4178303;28;20087;-37
2022/04/28 03:19:28;;;;;;;0.08;0.08;;;;;;;;;;4177832;28;20056;-37
2022/04/28 03:21:29;;;;;;;0.47;0.10;;;;;;;;;;4178130;28;20068;-37
2022/04/28 03:23:31;;;;;;;0.10;0.10;;;;;;;;;;4177958;28;20439;-37
2022/04/28 03:25:32;;;;;;;0.10;0.10;;;;;;;;;;4178289;28;20053;-37
2022/04/28 03:27:33;;;;;;;0.20;0.10;;;;;;;;;;4179471;28;20056;-37
2022/04/28 03:29:36;;;;;;;0.52;0.10;;;;;;;;;;4161679;28;20061;-37
2022/04/28 03:31:37;;;;;;;0.03;0.03;;;;;;;;;;4178284;28;20060;-37
2022/04/28 03:33:41;;;;;;;0.00;0.00;;;;;;;;;;4178865;28;20057;-37
2022/04/28 03:35:42;;;;;;;0.75;0.25;;;;;;;;;;4177959;28;20092;-37
2022/04/28 03:37:48;;;;;;;0.03;0.03;;;;;;;;;;4177801;28;20136;-37
2022/04/28 03:39:50;;;;;;;0.30;0.20;;;;;;;;;;4177963;28;20353;-37
2022/04/28 03:41:52;;;;;;;1.02;0.20;;;;;;;;;;4179463;28;20049;-39
2022/04/28 03:43:53;;;;;;;0.08;0.05;;;;;;;;;;4177562;28;20053;-37
2022/04/28 03:45:55;;;;;;;0.35;0.00;;;;;;;;;;4179232;28;20052;-38
2022/04/28 03:47:56;;;;;;;0.52;0.10;;;;;;;;;;4178640;28;20098;-37
2022/04/28 03:49:57;;;;;;;0.13;0.10;;;;;;;;;;4177596;28;20052;-37
2022/04/28 03:51:58;;;;;;;0.15;0.10;;;;;;;;;;4179099;28;20049;-37
2022/04/28 03:54:03;;;;;;;0.15;0.10;;;;;;;;;;4177687;28;20057;-37
2022/04/28 03:56:07;;;;;;;0.03;0.03;;;;;;;;;;4179569;28;20100;-37
2022/04/28 03:58:08;;;;;;;0.08;0.05;;;;;;;;;;4177679;28;20057;-37
2022/04/28 04:00:09;;;;;;;0.20;0.10;;;;;;;;;;4179058;28;20126;-37
2022/04/28 04:02:11;;;;;;;0.20;0.20;;;;;;;;;;4178983;28;20064;-37
2022/04/28 04:04:13;;;;;;;0.38;0.10;;;;;;;;;;4160817;28;20489;-37
2022/04/28 04:06:19;;;;;;;0.10;0.10;;;;;;;;;;4178060;28;20064;-37
2022/04/28 04:08:29;;;;;;;;;;;;;;;;;;4176092;28;20528;-37
2022/04/28 04:10:37;;;;;;;0.15;0.10;;;;;;;;;;4192655;28;19924;-37
2022/04/28 04:12:40;;;;;;;0.08;0.03;;;;;;;;;;4175628;28;20056;-37
2022/04/28 04:14:50;;;;;;;0.10;0.10;;;;;;;;;;4177394;28;20060;-37
2022/04/28 04:16:53;;;;;;;0.10;0.10;;;;;;;;;;4175903;28;20068;-37
2022/04/28 04:19:00;;;;;;;0.25;0.17;;;;;;;;;;4175265;28;20052;-37
2022/04/28 04:21:04;;;;;;;0.00;0.00;;;;;;;;;;4176828;28;20056;-37
2022/04/28 04:23:06;;;;;;;0.40;0.20;;;;;;;;;;4175554;28;20056;-37
2022/04/28 04:25:08;;;;;;;0.10;0.10;;;;;;;;;;4176984;28;20057;-37
2022/04/28 04:27:10;;;;;;;0.00;0.00;;;;;;;;;;4175683;28;20068;-37
2022/04/28 04:29:31;;;;;;;0.10;0.10;;;;;;;;;;4176729;28;20653;-37
2022/04/28 04:32:34;;;;;;;0.30;0.15;;;;;;;;;;4175415;28;20562;-37
2022/04/28 04:34:25;;;;;;;0.10;0.08;;;;;;;;;;4173440;28;20084;-37
2022/04/28 04:36:27;;;;;;;0.20;0.00;;;;;;;;;;4175638;28;20413;-37
2022/04/28 04:38:30;;;;;;;0.00;0.00;;;;;;;;;;4159242;28;20151;-37
2022/04/28 04:40:31;;;;;;;0.15;0.10;;;;;;;;;;4160659;28;20057;-37
2022/04/28 04:42:32;;;;;;;0.10;0.10;;;;;;;;;;4160656;28;20076;-37
2022/04/28 04:44:35;;;;;;;0.10;0.10;;;;;;;;;;4158911;28;20509;-37
2022/04/28 04:46:36;;;;;;;0.00;0.00;;;;;;;;;;4159213;28;20171;-38
2022/04/28 04:48:55;;;;;;;0.25;0.10;;;;;;;;;;4159987;28;20378;-38
2022/04/28 04:51:11;;;;;;;0.10;0.10;;;;;;;;;;4158896;28;20096;-36
2022/04/28 04:53:24;;;;;;;0.10;0.03;;;;;;;;;;4175314;28;20523;-38
2022/04/28 04:55:25;;;;;;;0.00;0.00;;;;;;;;;;4158822;28;20591;-37
2022/04/28 04:57:36;;;;;;;0.00;0.00;;;;;;;;;;4174789;28;20087;-37
2022/04/28 04:59:38;;;;;;;0.00;0.00;;;;;;;;;;4180445;28;20571;-37
2022/04/28 05:01:39;;;;;;;0.30;0.20;;;;;;;;;;4160443;28;20127;-37
2022/04/28 05:03:59;;;;;;;0.10;0.10;;;;;;;;;;4179278;28;20057;-37
2022/04/28 05:06:20;;;;;;;0.08;0.08;;;;;;;;;;4188101;28;20122;-36
2022/04/28 05:08:29;;;;;;;0.10;0.10;;;;;;;;;;4178067;28;20577;-37
2022/04/28 05:10:35;;;;;;;0.10;0.10;;;;;;;;;;4162186;28;20053;-37
2022/04/28 05:12:36;;;;;;;0.38;0.17;;;;;;;;;;4177625;28;20586;-36
2022/04/28 05:14:48;;;;;;;0.20;0.10;;;;;;;;;;4179539;28;20455;-37
2022/04/28 05:16:50;;;;;;;0.10;0.10;;;;;;;;;;4177925;28;20451;-36
2022/04/28 05:19:07;;;;;;;0.22;0.13;;;;;;;;;;4177677;28;20065;-36
2022/04/28 05:21:27;;;;;;;0.28;0.10;;;;;;;;;;4179634;28;20057;-37
2022/04/28 05:23:47;;;;;;;0.13;0.13;;;;;;;;;;4179513;28;20091;-36
2022/04/28 05:26:06;;;;;;;0.43;0.10;;;;;;;;;;4179505;28;20064;-36
2022/04/28 05:28:07;;;;;;;0.10;0.10;;;;;;;;;;4179075;28;20064;-36
2022/04/28 05:30:27;;;;;;;;;;;;;;;;;;4179846;28;20497;-36
2022/04/28 05:32:47;;;;;;;0.30;0.20;;;;;;;;;;4177709;28;19928;-36
2022/04/28 05:35:08;;;;;;;0.03;0.03;;;;;;;;;;4179188;28;20492;-36
2022/04/28 05:37:11;;;;;;;0.10;0.10;;;;;;;;;;4178848;28;20393;-37
2022/04/28 05:39:14;;;;;;;0.10;0.10;;;;;;;;;;4177785;28;20118;-37
2022/04/28 05:41:15;;;;;;;0.40;0.10;;;;;;;;;;4177850;28;20057;-37
2022/04/28 05:45:43;;;;;;;0.68;0.20;;;;;;;;;;4178699;28;20056;-36
2022/04/28 05:47:48;;;;;;;0.15;0.10;;;;;;;;;;4167420;28;20053;-36
2022/04/28 05:49:49;;;;;;;0.20;0.10;;;;;;;;;;4170844;28;20357;-37
2022/04/28 05:51:52;;;;;;;0.10;0.10;;;;;;;;;;4177914;28;20430;-37
2022/04/28 05:53:57;;;;;;;0.40;0.10;;;;;;;;;;4181758;28;20664;-36
2022/04/28 05:55:58;;;;;;;0.15;0.15;;;;;;;;;;4181019;28;20051;-36
2022/04/28 05:58:10;;;;;;;0.13;0.08;;;;;;;;;;4174982;28;20106;-36
2022/04/28 06:00:16;;;;;;;0.60;0.20;;;;;;;;;;4163972;28;20057;-36
2022/04/28 06:02:18;;;;;;;0.25;0.20;;;;;;;;;;4169603;28;20049;-36
2022/04/28 06:04:20;;;;;;;0.52;0.17;;;;;;;;;;4168942;28;20061;-36
2022/04/28 06:06:23;;;;;;;1.25;0.20;;;;;;;;;;4170185;28;20049;-36
2022/04/28 06:08:29;;;;;;;1.65;0.20;;;;;;;;;;4169773;28;20668;-36
2022/04/28 06:10:30;;;;;;;0.22;0.20;;;;;;;;;;4172318;28;20539;-36
2022/04/28 06:12:32;;;;;;;0.20;0.20;;;;;;;;;;4169908;28;20095;-36
2022/04/28 06:15:03;;;;;;;0.20;0.20;;;;;;;;;;4144197;28;20049;-36
2022/04/28 06:17:33;;;;;;;0.50;0.20;;;;;;;;;;4144498;28;20840;-36
2022/04/28 06:19:35;;;;;;;0.30;0.20;;;;;;;;;;4167755;28;20057;-36
2022/04/28 06:21:42;;;;;;;0.90;0.32;;;;;;;;;;4165144;28;20051;-36
2022/04/28 06:23:45;;;;;;;2.08;0.30;;;;;;;;;;4165942;28;20056;-38
2022/04/28 06:25:47;;;;;;;0.30;0.20;;;;;;;;;;4174781;28;20060;-36
2022/04/28 06:27:53;;;;;;;0.17;0.13;;;;;;;;;;4172211;28;20056;-36
2022/04/28 06:29:54;;;;;;;0.95;0.20;;;;;;;;;;4173085;28;20118;-36
2022/04/28 06:31:55;;;;;;;0.10;0.10;;;;;;;;;;4176138;28;20056;-36
2022/04/28 06:34:15;;;;;;;2.63;0.30;;;;;;;;;;4159699;28;20184;-36
2022/04/28 06:36:16;;;;;;;0.65;0.20;;;;;;;;;;4175188;28;20106;-36
2022/04/28 06:38:21;;;;;;;1.08;0.30;;;;;;;;;;4168465;28;21545;-36
2022/04/28 06:40:22;;;;;;;2.15;0.40;;;;;;;;;;4173671;28;20558;-36
2022/04/28 06:42:25;;;;;;;0.63;0.30;;;;;;;;;;4159769;28;20103;-36
2022/04/28 06:44:52;;;;;;;0.68;0.38;;;;;;;;;;4151042;28;20048;-37
2022/04/28 06:47:16;;;;;;;1.13;0.20;;;;;;;;;;4158322;28;20056;-39
2022/04/28 06:49:37;;;;;;;1.42;0.20;;;;;;;;;;4162908;28;20063;-38
2022/04/28 06:52:01;;;;;;;0.38;0.30;;;;;;;;;;4165607;28;20791;-38
2022/04/28 06:54:22;;;;;;;0.68;0.30;;;;;;;;;;4159537;28;20087;-38
2022/04/28 06:56:24;;;;;;;0.38;0.20;;;;;;;;;;4165075;28;20528;-38
2022/04/28 06:58:39;;;;;;;2.05;0.30;;;;;;;;;;4161157;28;20409;-38
2022/04/28 07:00:45;;;;;;;0.30;0.17;;;;;;;;;;4165717;28;20649;-39
2022/04/28 07:02:46;;;;;;;0.88;0.10;;;;;;;;;;4148932;28;20158;-39
2022/04/28 07:04:48;;;;;;;3.65;0.30;;;;;;;;;;4164691;28;20068;-39
2022/04/28 07:06:53;;;;;;;0.10;0.10;;;;;;;;;;4163412;28;20100;-38
2022/04/28 07:08:55;;;;;;;1.02;0.10;;;;;;;;;;4166237;28;20953;-38
2022/04/28 07:10:57;;;;;;;4.95;0.35;;;;;;;;;;4167675;28;20406;-37
2022/04/28 07:12:58;;;;;;;0.57;0.30;;;;;;;;;;4166459;28;20059;-41
2022/04/28 07:15:26;;;;;;;0.85;0.20;;;;;;;;;;4155773;28;21502;-38
2022/04/28 07:17:54;;;;;;;0.50;0.28;;;;;;;;;;4147637;28;20497;-41
2022/04/28 07:19:56;;;;;;;0.65;0.20;;;;;;;;;;4166632;28;20053;-38
2022/04/28 07:22:02;;;;;;;0.80;0.30;;;;;;;;;;4165555;28;20053;-39
2022/04/28 07:24:04;;;;;;;1.67;0.30;;;;;;;;;;4166561;28;20060;-38
2022/04/28 07:26:05;;;;;;;0.20;0.17;;;;;;;;;;4166438;28;20060;-39
2022/04/28 07:28:07;;;;;;;1.05;0.20;;;;;;;;;;4164200;28;20607;-40
2022/04/28 07:30:28;;;;;;;0.20;0.10;;;;;;;;;;4166666;28;20405;-38
2022/04/28 07:32:32;;;;;;;0.20;0.20;;;;;;;;;;4164809;28;20099;-38
2022/04/28 07:35:03;;;;;;;0.20;0.20;;;;;;;;;;4127258;28;20721;-38
2022/04/28 07:37:22;;;;;;;0.22;0.20;;;;;;;;;;4166297;28;20486;-38
2022/04/28 07:39:42;;;;;;;1.00;0.20;;;;;;;;;;4173841;28;20106;-38
2022/04/28 07:42:07;;;;;;;0.47;0.20;;;;;;;;;;4164137;28;20134;-38
2022/04/28 07:44:11;;;;;;;0.40;0.20;;;;;;;;;;4162676;28;20078;-37
2022/04/28 07:46:12;;;;;;;0.85;0.20;;;;;;;;;;4159668;28;20104;-38
2022/04/28 07:48:15;;;;;;;0.45;0.25;;;;;;;;;;4163983;28;20129;-38
2022/04/28 07:50:17;;;;;;;0.20;0.13;;;;;;;;;;4166315;28;20049;-38
2022/04/28 07:52:18;;;;;;;0.52;0.20;;;;;;;;;;4180600;28;20546;-39
2022/04/28 07:54:19;;;;;;;1.05;0.32;;;;;;;;;;4166081;28;20079;-38
2022/04/28 07:56:21;;;;;;;2.17;0.30;;;;;;;;;;4156538;28;20061;-38
2022/04/28 07:58:24;;;;;;;1.15;0.10;;;;;;;;;;4163585;28;20068;-38
2022/04/28 08:00:48;;;;;;;2.47;0.15;;;;;;;;;;4159050;28;20562;-37
2022/04/28 08:02:50;;;;;;;2.17;0.22;;;;;;;;;;4159134;28;20119;-38
2022/04/28 08:04:55;;;;;;;1.75;0.30;;;;;;;;;;4159862;28;20123;-39
2022/04/28 08:06:59;;;;;;;0.60;0.25;;;;;;;;;;4154775;28;20057;-39
2022/04/28 08:09:00;;;;;;;3.00;0.20;;;;;;;;;;4157103;28;20057;-38
2022/04/28 08:11:03;;;;;;;0.45;0.10;;;;;;;;;;4142719;28;20842;-37
2022/04/28 08:13:05;;;;;;;0.50;0.20;;;;;;;;;;4159471;28;20053;-38
2022/04/28 08:15:32;;;;;;;0.30;0.20;;;;;;;;;;4155012;28;20057;-38
2022/04/28 08:17:34;;;;;;;0.55;0.20;;;;;;;;;;4158622;28;20544;-39
2022/04/28 08:19:35;;;;;;;2.50;0.15;;;;;;;;;;4160618;28;20309;-38
2022/04/28 08:21:39;;;;;;;1.05;0.20;;;;;;;;;;4154328;28;20653;-38
2022/04/28 08:23:41;;;;;;;0.10;0.10;;;;;;;;;;4145017;28;20138;-39
2022/04/28 08:25:43;;;;;;;0.10;0.10;;;;;;;;;;4154490;28;20082;-38
2022/04/28 08:27:45;;;;;;;1.63;0.10;;;;;;;;;;4156728;28;20056;-38
2022/04/28 08:29:46;;;;;;;0.30;0.10;;;;;;;;;;4154595;28;20048;-38
2022/04/28 08:31:54;;;;;;;1.02;0.20;;;;;;;;;;4153829;28;20119;-38
2022/04/28 08:33:57;;;;;;;0.28;0.20;;;;;;;;;;4156657;28;20045;-38
2022/04/28 08:36:03;;;;;;;0.60;0.20;;;;;;;;;;4174346;28;21134;-38
2022/04/28 08:38:06;;;;;;;0.85;0.30;;;;;;;;;;4155803;28;20056;-38
2022/04/28 08:40:07;;;;;;;1.75;0.47;;;;;;;;;;4142360;28;20178;-38
2022/04/28 08:42:11;;;;;;;0.73;0.20;;;;;;;;;;4159901;28;20061;-38
2022/04/28 08:44:44;;;;;;;0.03;0.03;;;;;;;;;;4160012;28;20471;-38
2022/04/28 08:47:20;;;;;;;0.22;0.13;;;;;;;;;;4154267;28;20106;-37
2022/04/28 08:49:42;;;;;;;0.37;0.37;;;;;;;;;;4142115;28;20138;-36
2022/04/28 08:52:04;;;;;;;2.92;0.20;;;;;;;;;;4164603;28;20064;-38
2022/04/28 08:54:08;;;;;;;2.15;0.30;;;;;;;;;;4125470;28;20057;-37
2022/04/28 08:56:09;;;;;;;0.52;0.10;;;;;;;;;;4153441;28;20570;-38
2022/04/28 08:58:11;;;;;;;1.60;0.22;;;;;;;;;;4143840;28;20613;-37
2022/04/28 09:00:18;;;;;;;0.38;0.38;;;;;;;;;;4151764;28;21493;-37
2022/04/28 09:02:39;;;;;;;1.23;0.40;;;;;;;;;;4149115;28;20052;-38
2022/04/28 09:05:07;;;;;;;0.73;0.30;;;;;;;;;;4155668;28;20057;-38
2022/04/28 09:07:39;;;;;;;0.75;0.17;;;;;;;;;;4152672;28;20099;-37
2022/04/28 09:09:58;;;;;;;1.95;0.20;;;;;;;;;;4145294;28;21654;-37
2022/04/28 09:12:35;;;;;;;1.90;0.30;;;;;;;;;;4160595;28;20429;-38
2022/04/28 09:14:43;;;;;;;1.23;0.20;;;;;;;;;;4156536;28;20060;-37
2022/04/28 09:16:58;;;;;;;1.15;0.10;;;;;;;;;;4151233;28;20064;-37
2022/04/28 09:18:59;;;;;;;2.50;0.20;;;;;;;;;;4138078;28;20104;-37
2022/04/28 09:21:00;;;;;;;0.98;0.10;;;;;;;;;;4152687;28;20098;-37
2022/04/28 09:23:02;;;;;;;1.77;0.20;;;;;;;;;;4161491;28;20100;-37
2022/04/28 09:25:13;;;;;;;0.57;0.28;;;;;;;;;;4141490;28;20574;-36
2022/04/28 09:27:14;;;;;;;0.28;0.10;;;;;;;;;;4152981;28;20069;-37
2022/04/28 09:29:17;;;;;;;1.30;0.20;;;;;;;;;;4153180;28;20049;-37
2022/04/28 09:31:18;;;;;;;0.47;0.17;;;;;;;;;;4165976;28;20055;-36
2022/04/28 09:33:46;;;;;;;0.63;0.38;;;;;;;;;;4164645;28;20193;-37
2022/04/28 09:36:08;;;;;;;1.80;0.10;;;;;;;;;;4165388;28;20550;-39
2022/04/28 09:38:29;;;;;;;0.50;0.30;;;;;;;;;;4149477;28;20061;-38
2022/04/28 09:42:58;;;;;;;1.80;0.10;;;;;;;;;;4162675;28;20090;-39
2022/04/28 09:45:13;;;;;;;0.82;0.30;;;;;;;;;;4127420;28;20062;-37
2022/04/28 09:47:21;;;;;;;0.68;0.22;;;;;;;;;;4157489;28;20633;-38
2022/04/28 09:49:24;;;;;;;0.20;0.10;;;;;;;;;;4149998;28;20111;-40
2022/04/28 09:51:44;;;;;;;0.20;0.20;;;;;;;;;;4156243;28;20543;-37
2022/04/28 09:53:55;;;;;;;0.20;0.10;;;;;;;;;;4168499;28;20067;-37
2022/04/28 09:56:27;;;;;;;0.60;0.13;;;;;;;;;;4153443;28;20069;-38
2022/04/28 09:58:34;;;;;;;0.38;0.20;;;;;;;;;;4135982;28;20053;-37
2022/04/28 10:00:37;;;;;;;3.97;0.40;;;;;;;;;;4141909;28;20091;-37
2022/04/28 10:02:38;;;;;;;0.80;0.20;;;;;;;;;;4146170;28;20427;-37
2022/04/28 10:04:42;;;;;;;0.20;0.10;;;;;;;;;;4149500;28;20064;-37
2022/04/28 10:06:55;;;;;;;0.40;0.38;;;;;;;;;;4141800;28;20054;-37
2022/04/28 10:09:05;;;;;;;0.65;0.15;;;;;;;;;;4155305;28;20084;-37
2022/04/28 10:11:07;;;;;;;0.45;0.20;;;;;;;;;;4151707;28;21034;-37
2022/04/28 10:13:08;;;;;;;2.17;0.30;;;;;;;;;;4137992;28;20062;-36
2022/04/28 10:15:20;;;;;;;0.40;0.10;;;;;;;;;;4171980;28;20056;-37
2022/04/28 10:17:35;;;;;;;0.30;0.17;;;;;;;;;;4133219;28;20056;-37
2022/04/28 10:19:41;;;;;;;1.17;0.20;;;;;;;;;;4156049;28;20139;-36
2022/04/28 10:22:01;;;;;;;0.30;0.30;;;;;;;;;;4145494;28;21283;-37
2022/04/28 10:34:19;;;;;;;0.88;0.20;;;;;;;;;;4163298;28;20096;-37
2022/04/28 10:36:21;;;;;;;0.30;0.20;;;;;;;;;;4160235;28;20119;-38
2022/04/28 10:38:26;;;;;;;0.40;0.10;;;;;;;;;;4162290;28;20427;-39
2022/04/28 10:40:36;;;;;;;0.40;0.32;;;;;;;;;;4167789;28;21289;-37
2022/04/28 10:42:37;;;;;;;0.95;0.15;;;;;;;;;;4167753;28;20052;-37
2022/04/28 10:45:07;;;;;;;1.42;0.30;;;;;;;;;;4163870;28;20063;-38
2022/04/28 10:47:08;;;;;;;0.22;0.10;;;;;;;;;;4163467;28;20731;-37
2022/04/28 10:49:09;;;;;;;2.33;0.20;;;;;;;;;;4161773;28;20083;-38
2022/04/28 10:51:16;;;;;;;1.08;0.25;;;;;;;;;;4156729;28;21404;-37
2022/04/28 10:53:20;;;;;;;1.52;0.20;;;;;;;;;;4162887;28;20049;-37
2022/04/28 10:55:23;;;;;;;0.43;0.20;;;;;;;;;;4160689;28;20602;-37
2022/04/28 10:57:29;;;;;;;1.88;0.32;;;;;;;;;;4159598;28;20110;-37
2022/04/28 10:59:34;;;;;;;0.28;0.17;;;;;;;;;;4160565;28;20373;-38
2022/04/28 11:01:35;;;;;;;0.88;0.30;;;;;;;;;;4146337;28;21600;-38
2022/04/28 11:03:47;;;;;;;1.65;0.30;;;;;;;;;;4160707;28;20150;-35
2022/04/28 11:05:52;;;;;;;1.65;0.10;;;;;;;;;;4168972;28;20075;-36
2022/04/28 11:07:53;;;;;;;0.22;0.22;;;;;;;;;;4157855;28;20068;-34
2022/04/28 11:10:03;;;;;;;0.70;0.20;;;;;;;;;;4149773;28;20562;-35
2022/04/28 11:12:11;;;;;;;0.28;0.20;;;;;;;;;;4155537;28;21163;-34
2022/04/28 11:14:14;;;;;;;0.35;0.20;;;;;;;;;;4154510;28;20053;-35
2022/04/28 11:16:17;;;;;;;2.15;0.10;;;;;;;;;;4154858;28;20117;-35
2022/04/28 11:18:18;;;;;;;0.90;0.20;;;;;;;;;;4157567;28;20049;-35
2022/04/28 11:20:21;;;;;;;0.60;0.20;;;;;;;;;;4131908;28;20062;-36
2022/04/28 11:22:28;;;;;;;0.52;0.10;;;;;;;;;;4156276;28;21544;-35
2022/04/28 11:24:29;;;;;;;0.73;0.20;;;;;;;;;;4161478;28;20627;-35
2022/04/28 11:26:41;;;;;;;0.52;0.10;;;;;;;;;;4183411;28;20134;-36
2022/04/28 11:29:07;;;;;;;2.35;0.20;;;;;;;;;;4158626;28;20044;-34
2022/04/28 11:31:13;;;;;;;0.47;0.32;;;;;;;;;;4164302;28;20589;-38
2022/04/28 11:33:14;;;;;;;0.73;0.10;;;;;;;;;;4152545;28;20053;-36
2022/04/28 11:35:16;;;;;;;0.47;0.20;;;;;;;;;;4157113;28;20763;-36
2022/04/28 11:37:24;;;;;;;0.57;0.13;;;;;;;;;;4163283;28;20819;-35
2022/04/28 11:39:25;;;;;;;0.57;0.30;;;;;;;;;;4168297;28;20581;-39
2022/04/28 11:41:34;;;;;;;0.95;0.20;;;;;;;;;;4168207;28;20353;-38
2022/04/28 11:43:36;;;;;;;0.30;0.10;;;;;;;;;;4164009;28;20378;-37
2022/04/28 11:45:37;;;;;;;3.58;0.17;;;;;;;;;;4162463;28;20114;-37
2022/04/28 11:47:46;;;;;;;2.53;0.20;;;;;;;;;;4161858;28;20061;-38
2022/04/28 11:49:49;;;;;;;4.63;0.40;;;;;;;;;;4159602;28;20083;-38
2022/04/28 11:51:51;;;;;;;2.13;0.20;;;;;;;;;;4156099;28;20445;-39
2022/04/28 11:53:55;;;;;;;0.30;0.10;;;;;;;;;;4170084;28;20732;-37
2022/04/28 11:55:56;;;;;;;0.20;0.10;;;;;;;;;;4160554;28;20057;-37
2022/04/28 11:57:58;;;;;;;1.30;0.10;;;;;;;;;;4162762;28;20561;-36
2022/04/28 11:59:59;;;;;;;0.20;0.10;;;;;;;;;;4158961;28;20056;-36
2022/04/28 12:02:00;;;;;;;1.23;0.20;;;;;;;;;;4162400;28;20122;-38
2022/04/28 12:04:01;;;;;;;0.60;0.10;;;;;;;;;;4164421;28;20135;-37
2022/04/28 12:06:04;;;;;;;2.70;0.13;;;;;;;;;;4171488;28;20067;-37
2022/04/28 12:08:05;;;;;;;0.25;0.20;;;;;;;;;;4174696;28;20056;-36
2022/04/28 12:14:47;;;;;;;2.13;0.10;;;;;;;;;;4174309;28;20133;-35
2022/04/28 12:19:29;;;;;;;0.20;0.20;;;;;;;;;;4194678;28;20059;-36
2022/04/28 12:21:36;;;;;;;0.28;0.10;;;;;;;;;;4173060;28;20064;-36
2022/04/28 12:23:40;;;;;;;0.88;0.13;;;;;;;;;;4166205;28;20057;-36
2022/04/28 12:25:41;;;;;;;0.68;0.20;;;;;;;;;;4172626;28;20052;-35
2022/04/28 12:27:47;;;;;;;0.77;0.20;;;;;;;;;;4173093;28;20104;-36
2022/04/28 12:29:54;;;;;;;0.22;0.10;;;;;;;;;;4164713;28;20480;-36
2022/04/28 12:31:56;;;;;;;0.25;0.10;;;;;;;;;;4165719;28;20053;-35
2022/04/28 12:33:58;;;;;;;3.25;0.25;;;;;;;;;;4165828;28;20056;-36
2022/04/28 12:35:59;;;;;;;0.17;0.10;;;;;;;;;;4173842;28;20122;-37
2022/04/28 12:38:04;;;;;;;0.50;0.13;;;;;;;;;;4158530;28;20057;-37
2022/04/28 12:40:06;;;;;;;0.73;0.20;;;;;;;;;;4165196;28;20057;-37
2022/04/28 12:42:11;;;;;;;1.58;0.13;;;;;;;;;;4170768;28;20717;-37
2022/04/28 12:44:12;;;;;;;0.47;0.10;;;;;;;;;;4168179;28;20059;-38
2022/04/28 12:46:15;;;;;;;0.40;0.10;;;;;;;;;;4170320;28;20067;-37
2022/04/28 12:48:26;;;;;;;0.20;0.13;;;;;;;;;;4174034;28;20088;-37
2022/04/28 12:50:28;;;;;;;0.28;0.10;;;;;;;;;;4171757;28;20060;-37
2022/04/28 12:52:31;;;;;;;2.17;0.40;;;;;;;;;;4170707;28;20049;-37
2022/04/28 12:54:35;;;;;;;0.50;0.10;;;;;;;;;;4170878;28;20053;-37
2022/04/28 12:56:40;;;;;;;0.10;0.10;;;;;;;;;;4171438;28;20055;-37
2022/04/28 12:58:45;;;;;;;0.30;0.10;;;;;;;;;;4167495;28;20056;-36
2022/04/28 13:00:51;;;;;;;0.40;0.05;;;;;;;;;;4169931;28;20554;-40
2022/04/28 13:02:52;;;;;;;0.20;0.20;;;;;;;;;;4165573;28;20705;-44
2022/04/28 13:04:54;;;;;;;0.25;0.20;;;;;;;;;;4162767;28;20055;-40
2022/04/28 13:06:56;;;;;;;0.10;0.10;;;;;;;;;;4168932;28;20056;-39
2022/04/28 13:08:59;;;;;;;1.02;0.22;;;;;;;;;;4169916;28;20501;-41
2022/04/28 13:11:01;;;;;;;0.10;0.10;;;;;;;;;;4168865;28;20102;-43
2022/04/28 13:13:02;;;;;;;1.05;0.10;;;;;;;;;;4173123;28;20048;-43